createdAt,value
2023-08-22T00:00:08.984Z,21.10
2023-08-22T00:02:37.828Z,21.00
2023-08-22T00:05:06.616Z,21.00
2023-08-22T00:07:35.130Z,20.80
2023-08-22T00:10:05.094Z,20.80
2023-08-22T00:12:33.537Z,20.90
2023-08-22T00:15:02.108Z,21.00
2023-08-22T00:17:32.192Z,20.90
2023-08-22T00:20:00.764Z,20.90
2023-08-22T00:22:29.260Z,20.80
2023-08-22T00:24:57.675Z,20.80
2023-08-22T00:27:27.424Z,21.10
2023-08-22T00:29:55.803Z,21.10
2023-08-22T00:32:24.756Z,21.20
2023-08-22T00:34:53.497Z,21.30
2023-08-22T00:37:21.934Z,21.00
2023-08-22T00:39:50.494Z,20.80
2023-08-22T00:42:19.493Z,20.80
2023-08-22T00:44:49.392Z,21.00
2023-08-22T00:47:19.422Z,20.80
2023-08-22T00:49:48.040Z,21.10
2023-08-22T00:52:16.757Z,21.10
2023-08-22T00:54:47.555Z,21.10
2023-08-22T00:57:17.141Z,21.40
2023-08-22T00:59:46.028Z,21.20
2023-08-22T01:02:16.241Z,21.60
2023-08-22T01:04:44.907Z,21.70
2023-08-22T01:07:17.772Z,21.60
2023-08-22T01:09:50.593Z,21.10
2023-08-22T01:12:26.643Z,20.90
2023-08-22T01:15:00.624Z,20.70
2023-08-22T01:17:30.746Z,20.60
2023-08-22T01:19:59.730Z,20.70
2023-08-22T01:22:29.870Z,20.80
2023-08-22T01:24:58.344Z,21.10
2023-08-22T01:27:31.086Z,21.00
2023-08-22T01:30:06.196Z,21.40
2023-08-22T01:32:40.544Z,21.10
2023-08-22T01:35:13.780Z,21.50
2023-08-22T01:37:44.267Z,21.60
2023-08-22T01:40:14.242Z,21.20
2023-08-22T01:42:42.966Z,21.00
2023-08-22T01:45:12.064Z,21.10
2023-08-22T01:47:40.822Z,21.50
2023-08-22T01:50:10.389Z,21.20
2023-08-22T01:52:39.135Z,20.90
2023-08-22T01:55:09.658Z,20.80
2023-08-22T01:57:38.421Z,20.60
2023-08-22T02:00:08.469Z,20.60
2023-08-22T02:02:37.554Z,20.50
2023-08-22T02:05:06.507Z,20.40
2023-08-22T02:07:35.633Z,20.70
2023-08-22T02:10:05.544Z,20.60
2023-08-22T02:12:35.348Z,20.70
2023-08-22T02:15:04.229Z,20.60
2023-08-22T02:17:32.785Z,20.40
2023-08-22T02:20:01.276Z,20.20
2023-08-22T02:22:29.776Z,20.10
2023-08-22T02:24:58.255Z,19.90
2023-08-22T02:27:26.783Z,20.10
2023-08-22T02:29:56.445Z,20.20
2023-08-22T02:32:25.160Z,20.30
2023-08-22T02:34:53.696Z,20.70
2023-08-22T02:37:22.270Z,20.40
2023-08-22T02:39:50.778Z,20.60
2023-08-22T02:42:19.643Z,20.20
2023-08-22T02:44:48.149Z,20.20
2023-08-22T02:47:18.421Z,20.00
2023-08-22T02:49:46.970Z,19.90
2023-08-22T02:52:15.681Z,19.90
2023-08-22T02:54:44.121Z,20.30
2023-08-22T02:57:12.827Z,20.60
2023-08-22T02:59:41.501Z,20.00
2023-08-22T03:02:09.951Z,20.20
2023-08-22T03:04:39.891Z,19.90
2023-08-22T03:07:10.306Z,19.80
2023-08-22T03:09:39.521Z,19.80
2023-08-22T03:12:08.792Z,19.80
2023-08-22T03:14:37.289Z,20.00
2023-08-22T03:17:05.895Z,20.00
2023-08-22T03:19:34.323Z,20.40
2023-08-22T03:22:04.693Z,20.90
2023-08-22T03:24:33.236Z,21.00
2023-08-22T03:27:01.678Z,20.80
2023-08-22T03:29:30.420Z,20.50
2023-08-22T03:32:01.464Z,20.20
2023-08-22T03:34:30.139Z,19.80
2023-08-22T03:36:58.508Z,19.70
2023-08-22T03:39:28.196Z,19.60
2023-08-22T03:41:56.758Z,19.50
2023-08-22T03:44:25.147Z,19.40
2023-08-22T03:46:53.616Z,19.30
2023-08-22T03:49:22.140Z,19.30
2023-08-22T03:51:50.852Z,19.60
2023-08-22T03:54:19.492Z,19.60
2023-08-22T03:56:49.131Z,19.50
2023-08-22T03:59:18.963Z,19.30
2023-08-22T04:01:47.885Z,19.40
2023-08-22T04:04:16.330Z,19.30
2023-08-22T04:06:44.878Z,19.50
2023-08-22T04:09:13.626Z,19.30
2023-08-22T04:11:45.252Z,19.00
2023-08-22T04:14:14.880Z,18.90
2023-08-22T04:16:43.336Z,18.70
2023-08-22T04:19:11.889Z,18.80
2023-08-22T04:21:40.399Z,19.00
2023-08-22T04:24:10.657Z,19.20
2023-08-22T04:26:39.835Z,19.10
2023-08-22T04:29:08.508Z,19.40
2023-08-22T04:31:38.570Z,19.30
2023-08-22T04:34:06.980Z,19.10
2023-08-22T04:36:35.679Z,19.60
2023-08-22T04:39:04.311Z,19.80
2023-08-22T04:41:33.113Z,19.60
2023-08-22T04:44:01.892Z,19.70
2023-08-22T04:46:30.350Z,19.80
2023-08-22T04:49:00.239Z,19.80
2023-08-22T04:51:28.660Z,19.90
2023-08-22T04:53:57.047Z,20.30
2023-08-22T04:56:25.478Z,20.50
2023-08-22T04:58:54.576Z,20.40
2023-08-22T05:01:23.086Z,20.40
2023-08-22T05:03:52.471Z,20.00
2023-08-22T05:06:22.139Z,19.90
2023-08-22T05:08:50.538Z,20.00
2023-08-22T05:11:19.258Z,19.80
2023-08-22T05:13:47.725Z,19.90
2023-08-22T05:16:16.316Z,19.90
2023-08-22T05:18:44.786Z,20.10
2023-08-22T05:21:13.672Z,20.50
2023-08-22T05:23:43.366Z,21.30
2023-08-22T05:26:11.944Z,21.40
2023-08-22T05:28:40.340Z,21.30
2023-08-22T05:31:08.750Z,20.20
2023-08-22T05:33:37.166Z,19.80
2023-08-22T05:36:05.740Z,19.50
2023-08-22T05:38:34.163Z,19.40
2023-08-22T05:41:04.081Z,19.50
2023-08-22T05:43:32.539Z,19.60
2023-08-22T05:46:01.897Z,19.40
2023-08-22T05:48:30.474Z,19.30
2023-08-22T05:50:59.439Z,19.20
2023-08-22T05:53:27.897Z,19.70
2023-08-22T05:55:56.529Z,20.10
2023-08-22T05:58:26.161Z,19.90
2023-08-22T06:00:55.017Z,19.80
2023-08-22T06:03:23.586Z,19.80
2023-08-22T06:05:52.120Z,20.20
2023-08-22T06:08:20.943Z,20.20
2023-08-22T06:10:49.567Z,20.30
2023-08-22T06:13:17.963Z,19.90
2023-08-22T06:15:47.802Z,19.90
2023-08-22T06:18:16.290Z,20.60
2023-08-22T06:20:45.410Z,20.40
2023-08-22T06:23:13.794Z,20.50
2023-08-22T06:25:42.184Z,20.40
2023-08-22T06:28:10.774Z,20.30
2023-08-22T06:30:39.211Z,20.50
2023-08-22T06:33:09.311Z,20.30
2023-08-22T06:35:37.866Z,20.40
2023-08-22T06:38:06.449Z,20.90
2023-08-22T06:40:37.637Z,20.70
2023-08-22T06:43:06.481Z,20.30
2023-08-22T06:45:35.018Z,20.50
2023-08-22T06:48:03.887Z,21.00
2023-08-22T06:50:34.180Z,20.80
2023-08-22T06:53:02.591Z,21.40
2023-08-22T06:55:31.159Z,22.00
2023-08-22T06:57:59.572Z,21.70
2023-08-22T07:00:27.984Z,21.40
2023-08-22T07:02:56.501Z,20.90
2023-08-22T07:05:25.142Z,20.70
2023-08-22T07:07:54.871Z,20.60
2023-08-22T07:10:23.414Z,21.10
2023-08-22T07:12:52.098Z,20.70
2023-08-22T07:15:21.066Z,20.40
2023-08-22T07:17:49.766Z,20.30
2023-08-22T07:20:18.451Z,20.80
2023-08-22T07:22:47.220Z,21.10
2023-08-22T07:25:16.943Z,21.30
2023-08-22T07:27:46.163Z,21.50
2023-08-22T07:30:15.032Z,21.60
2023-08-22T07:32:43.565Z,21.30
2023-08-22T07:35:12.379Z,21.50
2023-08-22T07:37:40.775Z,21.40
2023-08-22T07:40:10.146Z,21.30
2023-08-22T07:42:40.095Z,21.80
2023-08-22T07:45:09.809Z,21.70
2023-08-22T07:47:38.444Z,21.50
2023-08-22T07:50:07.801Z,21.50
2023-08-22T07:52:36.658Z,21.80
2023-08-22T07:55:08.145Z,22.00
2023-08-22T07:57:36.718Z,22.00
2023-08-22T08:00:09.060Z,21.70
2023-08-22T08:02:37.799Z,21.70
2023-08-22T08:05:06.966Z,22.10
2023-08-22T08:07:35.518Z,22.10
2023-08-22T08:10:05.287Z,22.40
2023-08-22T08:12:33.738Z,22.70
2023-08-22T08:15:02.141Z,22.80
2023-08-22T08:17:31.873Z,22.60
2023-08-22T08:20:00.371Z,22.90
2023-08-22T08:22:28.800Z,22.10
2023-08-22T08:24:57.212Z,22.40
2023-08-22T08:27:25.746Z,22.60
2023-08-22T08:29:54.387Z,22.50
2023-08-22T08:32:22.945Z,22.90
2023-08-22T08:34:52.699Z,22.70
2023-08-22T08:37:22.403Z,23.00
2023-08-22T08:39:50.783Z,23.00
2023-08-22T08:42:19.864Z,22.30
2023-08-22T08:44:48.353Z,22.20
2023-08-22T08:47:17.341Z,21.40
2023-08-22T08:49:46.113Z,21.90
2023-08-22T08:52:16.785Z,22.10
2023-08-22T08:54:46.398Z,21.80
2023-08-22T08:57:14.787Z,22.30
2023-08-22T08:59:43.534Z,22.60
2023-08-22T09:02:17.309Z,22.80
2023-08-22T09:04:46.021Z,22.70
2023-08-22T09:07:16.116Z,22.50
2023-08-22T09:09:44.515Z,22.70
2023-08-22T09:12:14.845Z,22.90
2023-08-22T09:14:43.845Z,23.10
2023-08-22T09:17:16.193Z,23.10
2023-08-22T09:19:45.365Z,23.20
2023-08-22T09:22:16.758Z,23.20
2023-08-22T09:24:53.633Z,23.20
2023-08-22T09:27:24.572Z,23.20
2023-08-22T09:29:53.239Z,23.40
2023-08-22T09:32:23.879Z,23.50
2023-08-22T09:34:56.448Z,22.90
2023-08-22T09:37:36.217Z,22.70
2023-08-22T09:40:11.306Z,23.00
2023-08-22T09:42:41.950Z,22.80
2023-08-22T09:45:12.108Z,23.10
2023-08-22T09:47:45.138Z,22.60
2023-08-22T09:50:18.231Z,22.10
2023-08-22T09:52:49.256Z,22.20
2023-08-22T09:55:18.426Z,22.50
2023-08-22T09:57:47.338Z,22.40
2023-08-22T10:00:16.332Z,22.60
2023-08-22T10:02:45.963Z,22.60
2023-08-22T10:05:16.124Z,22.00
2023-08-22T10:07:44.937Z,22.00
2023-08-22T10:10:14.945Z,22.20
2023-08-22T10:12:44.704Z,22.50
2023-08-22T10:15:17.270Z,22.40
2023-08-22T10:17:47.773Z,22.30
2023-08-22T10:20:17.403Z,22.10
2023-08-22T10:22:46.402Z,22.10
2023-08-22T10:25:16.265Z,22.70
2023-08-22T10:27:50.086Z,22.80
2023-08-22T10:30:22.981Z,22.40
2023-08-22T10:33:20.548Z,22.00
2023-08-22T10:36:09.130Z,22.00
2023-08-22T10:38:58.042Z,22.00
2023-08-22T10:41:46.773Z,22.10
2023-08-22T10:44:20.006Z,22.40
2023-08-22T10:47:01.831Z,22.40
2023-08-22T10:49:33.939Z,22.50
2023-08-22T10:52:05.571Z,22.00
2023-08-22T10:54:34.993Z,21.90
2023-08-22T10:57:20.667Z,22.20
2023-08-22T11:00:08.046Z,22.20
2023-08-22T11:02:38.755Z,21.90
2023-08-22T11:05:11.072Z,22.00
2023-08-22T11:07:41.012Z,22.20
2023-08-22T11:10:10.461Z,22.40
2023-08-22T11:12:40.843Z,22.40
2023-08-22T11:15:10.153Z,22.80
2023-08-22T11:17:41.330Z,22.70
2023-08-22T11:20:13.190Z,22.50
2023-08-22T11:22:44.254Z,22.50
2023-08-22T11:25:13.776Z,22.50
2023-08-22T11:27:43.588Z,22.90
2023-08-22T11:30:13.247Z,22.90
2023-08-22T11:32:42.443Z,22.60
2023-08-22T11:35:12.359Z,22.20
2023-08-22T11:37:43.830Z,22.30
2023-08-22T11:40:15.679Z,22.40
2023-08-22T11:42:47.691Z,22.40
2023-08-22T11:45:18.881Z,22.50
2023-08-22T11:47:48.533Z,22.50
2023-08-22T11:50:19.176Z,22.70
2023-08-22T11:52:49.862Z,23.00
2023-08-22T11:55:19.519Z,22.70
2023-08-22T11:57:49.169Z,23.10
2023-08-22T12:00:17.894Z,23.30
2023-08-22T12:02:52.421Z,22.80
2023-08-22T12:05:31.423Z,22.90
2023-08-22T12:08:00.565Z,23.00
2023-08-22T12:10:40.374Z,23.00
2023-08-22T12:13:10.301Z,23.10
2023-08-22T12:15:39.382Z,22.80
2023-08-22T12:18:08.632Z,23.00
2023-08-22T12:20:39.585Z,23.20
2023-08-22T12:23:08.363Z,22.90
2023-08-22T12:25:37.200Z,23.00
2023-08-22T12:28:06.431Z,22.90
2023-08-22T12:30:37.657Z,23.20
2023-08-22T12:33:08.019Z,23.10
2023-08-22T12:35:37.879Z,23.10
2023-08-22T12:38:06.694Z,22.90
2023-08-22T12:40:35.165Z,23.30
2023-08-22T12:43:04.460Z,23.50
2023-08-22T12:45:33.379Z,23.60
2023-08-22T12:48:03.122Z,23.30
2023-08-22T12:50:34.245Z,23.20
2023-08-22T12:53:05.275Z,23.40
2023-08-22T12:55:33.689Z,23.00
2023-08-22T12:58:02.383Z,23.20
2023-08-22T13:00:30.942Z,23.20
2023-08-22T13:02:59.787Z,23.10
2023-08-22T13:05:30.321Z,23.20
2023-08-22T13:07:58.727Z,23.10
2023-08-22T13:10:27.445Z,23.20
2023-08-22T13:12:56.408Z,23.20
2023-08-22T13:15:24.837Z,22.90
2023-08-22T13:17:55.094Z,23.40
2023-08-22T13:20:23.753Z,23.20
2023-08-22T13:22:53.545Z,23.60
2023-08-22T13:25:22.051Z,23.60
2023-08-22T13:27:50.488Z,23.50
2023-08-22T13:30:19.037Z,23.40
2023-08-22T13:32:47.558Z,23.70
2023-08-22T13:35:16.593Z,24.00
2023-08-22T13:37:45.708Z,23.70
2023-08-22T13:40:15.602Z,23.60
2023-08-22T13:42:44.264Z,23.70
2023-08-22T13:45:12.906Z,23.30
2023-08-22T13:47:41.943Z,23.70
2023-08-22T13:50:10.841Z,23.70
2023-08-22T13:52:39.583Z,23.60
2023-08-22T13:55:08.585Z,23.60
2023-08-22T13:57:38.265Z,23.90
2023-08-22T14:00:08.228Z,23.70
2023-08-22T14:02:37.190Z,23.80
2023-08-22T14:05:05.960Z,23.80
2023-08-22T14:07:34.407Z,23.60
2023-08-22T14:10:02.942Z,23.90
2023-08-22T14:12:31.466Z,23.60
2023-08-22T14:15:01.273Z,23.90
2023-08-22T14:17:29.861Z,23.70
2023-08-22T14:19:58.447Z,23.70
2023-08-22T14:22:27.203Z,23.80
2023-08-22T14:24:55.759Z,24.00
2023-08-22T14:27:26.599Z,23.90
2023-08-22T14:29:56.162Z,24.00
2023-08-22T14:32:26.464Z,23.80
2023-08-22T14:34:55.222Z,24.00
2023-08-22T14:37:24.021Z,24.00
2023-08-22T14:39:52.987Z,24.20
2023-08-22T14:42:21.572Z,24.20
2023-08-22T14:44:50.098Z,23.90
2023-08-22T14:47:18.676Z,23.80
2023-08-22T14:49:48.399Z,24.00
2023-08-22T14:52:16.811Z,24.00
2023-08-22T14:54:45.242Z,23.90
2023-08-22T14:57:13.769Z,24.00
2023-08-22T14:59:42.441Z,23.90
2023-08-22T15:02:10.881Z,23.90
2023-08-22T15:04:39.307Z,24.10
2023-08-22T15:07:09.161Z,23.80
2023-08-22T15:09:37.733Z,24.00
2023-08-22T15:12:06.728Z,24.20
2023-08-22T15:14:35.167Z,24.30
2023-08-22T15:17:03.818Z,24.10
2023-08-22T15:19:32.274Z,24.10
2023-08-22T15:22:00.960Z,24.20
2023-08-22T15:24:30.723Z,24.10
2023-08-22T15:26:59.141Z,24.20
2023-08-22T15:29:27.593Z,24.00
2023-08-22T15:31:56.102Z,24.10
2023-08-22T15:34:25.595Z,24.20
2023-08-22T15:36:54.301Z,24.30
2023-08-22T15:39:22.711Z,24.00
2023-08-22T15:41:52.415Z,24.00
2023-08-22T15:44:20.885Z,24.00
2023-08-22T15:46:49.361Z,24.00
2023-08-22T15:49:18.117Z,23.90
2023-08-22T15:51:46.631Z,24.10
2023-08-22T15:54:15.274Z,24.00
2023-08-22T15:56:43.680Z,24.00
2023-08-22T15:59:13.341Z,24.00
2023-08-22T16:01:42.091Z,24.20
2023-08-22T16:04:10.708Z,24.00
2023-08-22T16:06:39.303Z,23.90
2023-08-22T16:09:07.830Z,23.80
2023-08-22T16:11:36.222Z,23.80
2023-08-22T16:14:04.704Z,23.60
2023-08-22T16:16:34.600Z,23.70
2023-08-22T16:19:03.121Z,24.00
2023-08-22T16:21:31.516Z,23.90
2023-08-22T16:24:00.403Z,24.00
2023-08-22T16:26:29.368Z,24.20
2023-08-22T16:28:57.893Z,24.20
2023-08-22T16:31:28.752Z,23.90
2023-08-22T16:33:58.437Z,24.10
2023-08-22T16:36:27.281Z,24.20
2023-08-22T16:38:55.771Z,24.20
2023-08-22T16:41:24.638Z,24.30
2023-08-22T16:43:54.971Z,24.30
2023-08-22T16:46:24.293Z,24.50
2023-08-22T16:48:52.872Z,24.50
2023-08-22T16:51:22.647Z,24.50
2023-08-22T16:53:51.774Z,24.40
2023-08-22T16:56:20.228Z,24.60
2023-08-22T16:59:03.110Z,24.30
2023-08-22T17:01:35.762Z,24.40
2023-08-22T17:04:04.503Z,24.40
2023-08-22T17:06:34.341Z,24.20
2023-08-22T17:09:03.128Z,24.10
2023-08-22T17:11:31.980Z,24.00
2023-08-22T17:14:00.508Z,24.10
2023-08-22T17:16:29.100Z,24.30
2023-08-22T17:18:57.737Z,24.30
2023-08-22T17:21:26.710Z,24.30
2023-08-22T17:23:56.335Z,24.00
2023-08-22T17:26:24.778Z,24.10
2023-08-22T17:28:53.328Z,23.70
2023-08-22T17:31:22.590Z,23.70
2023-08-22T17:33:51.628Z,23.60
2023-08-22T17:36:20.324Z,23.70
2023-08-22T17:38:49.978Z,24.00
2023-08-22T17:41:19.743Z,24.20
2023-08-22T17:43:48.453Z,24.30
2023-08-22T17:46:20.057Z,24.40
2023-08-22T17:48:49.508Z,24.30
2023-08-22T17:51:18.730Z,24.30
2023-08-22T17:53:47.156Z,24.30
2023-08-22T17:56:16.126Z,24.30
2023-08-22T17:58:46.573Z,24.50
2023-08-22T18:01:15.561Z,24.30
2023-08-22T18:03:44.189Z,24.20
2023-08-22T18:06:12.794Z,24.30
2023-08-22T18:08:43.325Z,24.30
2023-08-22T18:11:12.023Z,24.30
2023-08-22T18:13:42.016Z,24.30
2023-08-22T18:16:13.292Z,24.10
2023-08-22T18:18:42.541Z,24.40
2023-08-22T18:21:11.881Z,24.50
2023-08-22T18:23:41.002Z,24.60
2023-08-22T18:26:10.935Z,24.60
2023-08-22T18:28:40.876Z,24.60
2023-08-22T18:31:24.732Z,24.60
2023-08-22T18:33:55.449Z,24.60
2023-08-22T18:36:26.196Z,24.40
2023-08-22T18:38:54.921Z,24.20
2023-08-22T18:41:23.612Z,23.80
2023-08-22T18:43:52.731Z,23.50
2023-08-22T18:46:25.851Z,23.90
2023-08-22T18:48:54.658Z,24.20
2023-08-22T18:51:23.054Z,24.30
2023-08-22T18:53:51.501Z,24.20
2023-08-22T18:56:20.070Z,23.70
2023-08-22T18:58:48.573Z,23.40
2023-08-22T19:01:17.982Z,23.30
2023-08-22T19:03:47.632Z,23.00
2023-08-22T19:06:16.155Z,23.00
2023-08-22T19:08:44.603Z,22.90
2023-08-22T19:11:13.667Z,22.80
2023-08-22T19:13:42.303Z,22.80
2023-08-22T19:16:10.678Z,22.80
2023-08-22T19:18:39.309Z,22.70
2023-08-22T19:21:09.335Z,22.70
2023-08-22T19:23:37.816Z,22.50
2023-08-22T19:26:06.690Z,22.50
2023-08-22T19:28:36.374Z,22.50
2023-08-22T19:31:05.101Z,22.60
2023-08-22T19:33:33.957Z,22.50
2023-08-22T19:36:02.445Z,22.40
2023-08-22T19:38:32.125Z,22.50
2023-08-22T19:41:00.600Z,22.50
2023-08-22T19:43:29.356Z,22.50
2023-08-22T19:45:59.764Z,22.60
2023-08-22T19:48:28.217Z,22.60
2023-08-22T19:50:56.956Z,22.50
2023-08-22T19:53:25.474Z,22.40
2023-08-22T19:55:55.133Z,22.20
2023-08-22T19:58:23.541Z,22.20
2023-08-22T20:00:55.418Z,22.10
2023-08-22T20:03:24.409Z,22.00
2023-08-22T20:05:52.869Z,22.00
2023-08-22T20:08:21.676Z,22.10
2023-08-22T20:10:50.650Z,22.50
2023-08-22T20:13:20.844Z,22.90
2023-08-22T20:15:51.037Z,22.70
2023-08-22T20:18:19.737Z,22.70
2023-08-22T20:20:50.516Z,22.50
2023-08-22T20:23:19.308Z,22.30
2023-08-22T20:25:48.104Z,22.20
2023-08-22T20:28:16.686Z,22.10
2023-08-22T20:30:53.983Z,22.10
2023-08-22T20:33:23.752Z,22.30
2023-08-22T20:35:53.532Z,22.30
2023-08-22T20:38:21.975Z,22.70
2023-08-22T20:40:50.622Z,22.90
2023-08-22T20:43:18.902Z,22.40
2023-08-22T20:45:48.764Z,22.80
2023-08-22T20:48:17.330Z,22.50
2023-08-22T20:50:46.074Z,22.10
2023-08-22T20:53:14.612Z,21.80
2023-08-22T20:55:43.050Z,21.80
2023-08-22T20:58:11.513Z,22.20
2023-08-22T21:00:40.018Z,21.90
2023-08-22T21:03:09.719Z,21.60
2023-08-22T21:05:38.878Z,21.50
2023-08-22T21:08:07.733Z,21.40
2023-08-22T21:10:36.259Z,21.10
2023-08-22T21:13:04.949Z,20.90
2023-08-22T21:15:33.634Z,20.90
2023-08-22T21:18:02.164Z,20.90
2023-08-22T21:20:31.828Z,20.80
2023-08-22T21:23:01.081Z,20.80
2023-08-22T21:25:29.337Z,20.70
2023-08-22T21:27:57.650Z,20.70
2023-08-22T21:30:26.048Z,20.70
2023-08-22T21:32:55.157Z,20.70
2023-08-22T21:35:24.488Z,20.70
2023-08-22T21:37:54.296Z,20.60
2023-08-22T21:40:22.787Z,20.70
2023-08-22T21:42:51.272Z,20.60
2023-08-22T21:45:20.785Z,20.60
2023-08-22T21:47:49.250Z,20.50
2023-08-22T21:50:20.720Z,20.50
2023-08-22T21:52:50.058Z,20.50
2023-08-22T21:55:19.766Z,20.40
2023-08-22T21:57:48.230Z,20.40
2023-08-22T22:00:17.103Z,20.40
2023-08-22T22:02:46.238Z,20.40
2023-08-22T22:05:15.110Z,20.50
2023-08-22T22:07:43.658Z,20.50
2023-08-22T22:10:12.852Z,20.50
2023-08-22T22:12:42.487Z,20.90
2023-08-22T22:15:11.022Z,21.00
2023-08-22T22:17:40.641Z,20.80
2023-08-22T22:20:11.190Z,20.70
2023-08-22T22:22:39.887Z,21.10
2023-08-22T22:25:09.273Z,21.00
2023-08-22T22:27:37.759Z,20.90
2023-08-22T22:30:09.043Z,20.70
2023-08-22T22:32:37.785Z,20.60
2023-08-22T22:35:06.770Z,21.20
2023-08-22T22:37:35.308Z,21.40
2023-08-22T22:40:03.930Z,21.20
2023-08-22T22:42:32.724Z,21.20
2023-08-22T22:45:01.576Z,21.00
2023-08-22T22:47:31.552Z,21.30
2023-08-22T22:49:59.932Z,21.40
2023-08-22T22:52:28.356Z,21.30
2023-08-22T22:54:56.915Z,21.00
2023-08-22T22:57:25.321Z,20.80
2023-08-22T22:59:53.749Z,20.60
2023-08-22T23:02:22.286Z,20.70
2023-08-22T23:04:52.083Z,20.40
2023-08-22T23:07:20.487Z,20.20
2023-08-22T23:09:48.904Z,20.10
2023-08-22T23:12:18.184Z,20.30
2023-08-22T23:14:46.721Z,20.20
2023-08-22T23:17:20.703Z,20.30
2023-08-22T23:19:50.361Z,20.20
2023-08-22T23:22:20.402Z,20.40
2023-08-22T23:24:48.819Z,21.20
2023-08-22T23:27:17.223Z,21.00
2023-08-22T23:29:45.652Z,20.80
2023-08-22T23:32:14.074Z,20.60
2023-08-22T23:34:42.485Z,20.60
2023-08-22T23:37:11.378Z,20.80
2023-08-22T23:39:41.046Z,20.50
2023-08-22T23:42:09.696Z,20.50
2023-08-22T23:44:38.201Z,20.70
2023-08-22T23:47:06.780Z,20.20
2023-08-22T23:49:35.311Z,19.80
2023-08-22T23:52:04.399Z,19.70
2023-08-22T23:54:33.104Z,19.70
2023-08-22T23:57:03.100Z,19.60
2023-08-22T23:59:33.219Z,19.50
